Terminal Aerodrome Forecast
Issued by NWS

Home | Current Version | Previous Version | Graphics & Text | Print | Product List | Glossary On
Versions: 1 2 3 4 5 6 7 8 9 10 11 12 13 14 15
000
FTUS43 KGRB 012339
TAFAUW
TAF
KAUW 012339Z 0200/0224 24005KT P6SM BKN110
     FM020700 21006KT P6SM SCT050 BKN090 WS015/25035KT
      TEMPO 0207/0211 5SM -TSRA BR BKN050CB
     FM021400 25010G17KT P6SM SCT035 SCT100
     FM022000 30011G18KT P6SM SCT035 BKN070=

USA.gov is the U.S. government's official web portal to all federal, state and local government web resources and services.